Time;durP1;ratioP1;P1;durP2;ratioP2;P2;SDS_P1;SDS_P2;PMS_P1;PMS_P2;Temp;Humidity;BMP_temperature;BMP_pressure;BME280_temperature;BME280_humidity;BME280_pressure;Samples;Min_cycle;Max_cycle;Signal;HPM_P1;HPM_P2
2023/10/06 00:01:42;;;;;;;0.10;0.10;;;14.40;99.90;;;;;;5016742;28;20034;-78
2023/10/06 00:04:13;;;;;;;0.68;0.60;;;14.50;99.90;;;;;;5016880;28;20033;-78
2023/10/06 00:06:42;;;;;;;0.98;0.98;;;14.60;99.90;;;;;;5016701;28;20654;-78
2023/10/06 00:09:09;;;;;;;0.35;0.35;;;14.50;99.90;;;;;;5016523;28;20482;-78
2023/10/06 00:11:37;;;;;;;0.10;0.10;;;14.40;99.90;;;;;;5016441;28;20129;-78
2023/10/06 00:14:07;;;;;;;0.20;0.20;;;14.30;99.90;;;;;;5015350;28;20040;-78
2023/10/06 00:16:39;;;;;;;0.20;0.20;;;14.20;99.90;;;;;;5015294;28;20429;-78
2023/10/06 00:19:31;;;;;;;0.10;0.10;;;14.30;99.90;;;;;;5016696;28;20386;-78
2023/10/06 00:22:12;;;;;;;;;;;14.40;99.90;;;;;;5015568;28;20065;-78
2023/10/06 00:24:41;;;;;;;0.00;0.00;;;14.60;99.90;;;;;;5016341;28;20297;-78
2023/10/06 00:27:13;;;;;;;0.00;0.00;;;14.40;99.90;;;;;;5016016;28;20053;-78
2023/10/06 00:29:44;;;;;;;0.10;0.10;;;14.30;99.90;;;;;;5031739;28;20478;-78
2023/10/06 00:32:22;;;;;;;0.82;0.82;;;14.30;99.90;;;;;;5031220;28;20041;-78
2023/10/06 00:35:30;;;;;;;0.08;0.08;;;14.20;99.90;;;;;;5016143;28;20382;-78
2023/10/06 00:37:42;;;;;;;0.30;0.30;;;14.30;99.90;;;;;;5015633;28;20046;-78
2023/10/06 00:40:19;;;;;;;0.10;0.10;;;14.40;99.90;;;;;;5016539;28;20053;-78
2023/10/06 00:42:56;;;;;;;0.20;0.20;;;14.40;99.90;;;;;;5001952;28;20052;-78
2023/10/06 00:45:25;;;;;;;0.93;0.85;;;14.40;99.90;;;;;;5016126;28;20044;-78
2023/10/06 00:47:53;;;;;;;0.03;0.03;;;14.30;99.90;;;;;;5015737;28;20034;-78
2023/10/06 00:50:24;;;;;;;1.10;0.77;;;14.30;99.90;;;;;;5016327;28;20038;-78
2023/10/06 00:52:51;;;;;;;1.65;0.85;;;14.30;99.90;;;;;;5015744;28;20026;-78
2023/10/06 00:55:19;;;;;;;0.95;0.43;;;14.10;99.90;;;;;;5014837;28;20108;-78
2023/10/06 00:57:53;;;;;;;0.98;0.30;;;13.90;99.90;;;;;;5031039;28;20076;-78
2023/10/06 01:00:22;;;;;;;0.47;0.47;;;13.90;99.90;;;;;;5015866;28;20026;-78
2023/10/06 01:02:49;;;;;;;0.10;0.10;;;13.80;99.90;;;;;;5015453;28;20104;-78
2023/10/06 01:05:16;;;;;;;0.85;0.85;;;14.00;99.90;;;;;;5015627;28;20025;-78
2023/10/06 01:07:46;;;;;;;0.20;0.20;;;14.00;99.90;;;;;;5015675;28;20061;-77
2023/10/06 01:10:17;;;;;;;0.10;0.10;;;14.00;99.90;;;;;;5013845;28;20458;-77
2023/10/06 01:12:50;;;;;;;0.03;0.03;;;14.10;99.90;;;;;;5014124;28;20061;-77
2023/10/06 01:15:18;;;;;;;3.83;0.40;;;14.10;99.90;;;;;;5012999;28;20022;-78
2023/10/06 01:17:45;;;;;;;0.50;0.50;;;14.20;99.90;;;;;;5015224;28;20445;-78
2023/10/06 01:20:33;;;;;;;10.07;1.67;;;14.00;99.90;;;;;;5014311;28;20394;-78
2023/10/06 01:23:00;;;;;;;0.03;0.03;;;13.90;99.90;;;;;;5015159;28;20080;-78
2023/10/06 01:25:26;;;;;;;0.20;0.20;;;13.90;99.90;;;;;;5013850;28;20037;-78
2023/10/06 01:27:52;;;;;;;0.20;0.20;;;13.90;99.90;;;;;;5015238;28;20052;-78
2023/10/06 01:30:19;;;;;;;0.38;0.38;;;14.00;99.90;;;;;;5014090;28;20046;-78
2023/10/06 01:32:46;;;;;;;4.28;1.08;;;14.20;99.90;;;;;;5013753;28;20022;-78
2023/10/06 01:35:13;;;;;;;3.53;1.85;;;14.10;99.90;;;;;;5013860;28;20033;-78
2023/10/06 01:37:43;;;;;;;0.30;0.30;;;14.20;99.90;;;;;;5015005;28;20049;-78
2023/10/06 01:40:19;;;;;;;0.10;0.10;;;14.20;99.90;;;;;;5015182;28;20042;-78
2023/10/06 01:42:45;;;;;;;1.38;0.95;;;14.30;99.90;;;;;;5014778;28;20026;-78
2023/10/06 01:45:15;;;;;;;0.32;0.30;;;14.10;99.90;;;;;;5013797;28;20355;-78
2023/10/06 01:47:41;;;;;;;0.30;0.30;;;14.00;99.90;;;;;;5013418;28;20454;-78
2023/10/06 01:50:11;;;;;;;0.10;0.10;;;14.00;99.90;;;;;;5013692;28;20092;-78
2023/10/06 01:52:40;;;;;;;0.57;0.57;;;13.90;99.90;;;;;;5014546;28;20042;-78
2023/10/06 01:55:09;;;;;;;0.00;0.00;;;13.90;99.90;;;;;;5014947;28;20462;-78
2023/10/06 01:57:35;;;;;;;2.28;2.05;;;13.90;99.90;;;;;;5014643;28;20465;-78
2023/10/06 02:00:01;;;;;;;0.10;0.10;;;13.90;99.90;;;;;;5013304;28;20025;-78
2023/10/06 02:02:37;;;;;;;0.20;0.20;;;13.90;99.90;;;;;;5014711;28;20455;-78
2023/10/06 02:05:06;;;;;;;0.80;0.80;;;13.80;99.90;;;;;;5014481;28;20109;-78
2023/10/06 02:07:35;;;;;;;0.85;0.85;;;13.70;99.90;;;;;;5013222;28;20080;-78
2023/10/06 02:10:01;;;;;;;0.17;0.17;;;13.80;99.90;;;;;;5014155;28;20485;-78
2023/10/06 02:12:26;;;;;;;3.63;2.80;;;13.80;99.90;;;;;;5013265;28;20050;-78
2023/10/06 02:14:52;;;;;;;0.00;0.00;;;13.70;99.90;;;;;;5012291;28;20363;-78
2023/10/06 02:17:18;;;;;;;1.15;0.63;;;13.60;99.90;;;;;;5014392;28;20391;-77
2023/10/06 02:19:44;;;;;;;21.30;2.08;;;13.70;99.90;;;;;;5014321;28;20062;-78
2023/10/06 02:22:10;;;;;;;3.92;1.17;;;13.60;99.90;;;;;;5014420;28;20075;-78
2023/10/06 02:24:36;;;;;;;0.30;0.30;;;13.60;99.90;;;;;;5012743;28;20117;-78
2023/10/06 02:27:02;;;;;;;5.40;0.85;;;13.60;99.90;;;;;;5012934;28;20104;-77
2023/10/06 02:29:29;;;;;;;0.20;0.20;;;13.70;99.90;;;;;;5014259;28;20030;-78
2023/10/06 02:32:06;;;;;;;0.10;0.10;;;13.60;99.90;;;;;;5012664;28;20030;-78
2023/10/06 02:34:35;;;;;;;0.30;0.25;;;13.80;99.90;;;;;;5013999;28;20075;-78
2023/10/06 02:37:04;;;;;;;0.10;0.10;;;13.80;99.90;;;;;;5013551;28;20026;-78
2023/10/06 02:39:43;;;;;;;0.10;0.10;;;13.90;99.90;;;;;;5012594;28;20151;-78
2023/10/06 02:42:13;;;;;;;7.47;2.72;;;13.80;99.90;;;;;;5012723;28;20033;-77
2023/10/06 02:44:40;;;;;;;2.13;0.43;;;13.80;99.90;;;;;;5028826;28;20018;-78
2023/10/06 02:47:09;;;;;;;0.98;0.88;;;13.80;99.90;;;;;;5012892;28;20137;-78
2023/10/06 02:49:47;;;;;;;0.10;0.10;;;13.90;99.90;;;;;;5013808;28;20367;-78
2023/10/06 02:52:16;;;;;;;1.55;0.85;;;13.80;99.90;;;;;;5028628;28;20536;-78
2023/10/06 02:54:55;;;;;;;0.25;0.25;;;13.50;99.90;;;;;;5013741;28;20018;-78
2023/10/06 02:57:21;;;;;;;0.13;0.13;;;13.50;99.90;;;;;;5012405;28;20087;-78
2023/10/06 02:59:48;;;;;;;0.10;0.10;;;13.70;99.90;;;;;;5028719;28;20018;-78
2023/10/06 03:02:17;;;;;;;1.45;0.82;;;13.80;99.90;;;;;;5013803;28;20037;-78
2023/10/06 03:04:43;;;;;;;0.10;0.10;;;13.90;99.90;;;;;;5013351;28;20041;-78
2023/10/06 03:07:15;;;;;;;0.15;0.15;;;13.70;99.90;;;;;;5012050;28;20056;-78
2023/10/06 03:09:46;;;;;;;0.00;0.00;;;13.50;99.90;;;;;;5011920;28;20490;-77
2023/10/06 03:14:49;;;;;;;0.10;0.10;;;13.80;99.90;;;;;;5028527;28;20040;-78
2023/10/06 03:17:19;;;;;;;0.10;0.10;;;13.60;99.90;;;;;;5013397;28;20501;-78
2023/10/06 03:19:55;;;;;;;0.10;0.10;;;13.70;99.90;;;;;;5013177;28;20025;-78
2023/10/06 03:22:25;;;;;;;2.20;0.80;;;13.70;99.90;;;;;;5011891;28;20056;-78
2023/10/06 03:24:58;;;;;;;0.57;0.57;;;13.60;99.90;;;;;;5028394;28;20113;-78
2023/10/06 03:27:25;;;;;;;0.20;0.20;;;13.60;99.90;;;;;;5022698;28;20030;-78
2023/10/06 03:29:55;;;;;;;4.22;1.20;;;13.80;99.90;;;;;;5005306;28;20512;-78
2023/10/06 03:32:29;;;;;;;1.35;0.80;;;13.70;99.90;;;;;;5011102;28;20025;-78
2023/10/06 03:34:58;;;;;;;0.00;0.00;;;13.70;99.90;;;;;;5011713;28;20069;-78
2023/10/06 03:37:44;;;;;;;0.22;0.22;;;13.80;99.90;;;;;;5012927;28;20101;-78
2023/10/06 03:40:19;;;;;;;0.57;0.57;;;13.70;99.90;;;;;;5012884;28;20076;-78
2023/10/06 03:42:47;;;;;;;0.10;0.10;;;13.50;99.90;;;;;;5011596;28;20582;-78
2023/10/06 03:45:31;;;;;;;0.15;0.15;;;13.60;99.90;;;;;;5012993;28;20029;-77
2023/10/06 03:48:12;;;;;;;2.78;1.58;;;13.60;99.90;;;;;;5011685;28;20030;-78
2023/10/06 03:50:44;;;;;;;1.80;1.55;;;13.70;99.90;;;;;;5011079;28;20046;-78
2023/10/06 03:53:11;;;;;;;0.75;0.73;;;13.60;99.90;;;;;;5011650;28;20076;-78
2023/10/06 03:55:46;;;;;;;0.00;0.00;;;13.50;99.90;;;;;;5012664;28;20041;-77
2023/10/06 03:58:14;;;;;;;3.65;2.28;;;13.50;99.90;;;;;;5012788;28;20034;-78
2023/10/06 04:00:47;;;;;;;0.05;0.05;;;13.40;99.90;;;;;;5012692;28;20014;-78
2023/10/06 04:03:17;;;;;;;3.65;1.05;;;13.50;99.90;;;;;;5012953;28;20038;-78
2023/10/06 04:05:50;;;;;;;0.20;0.20;;;13.30;99.90;;;;;;5012130;28;20033;-78
2023/10/06 04:08:19;;;;;;;1.38;0.60;;;13.50;99.90;;;;;;5012725;28;20109;-78
2023/10/06 04:10:48;;;;;;;1.65;0.77;;;13.60;99.90;;;;;;5012438;28;20046;-78
2023/10/06 04:13:17;;;;;;;0.43;0.43;;;13.60;99.90;;;;;;5012823;28;20105;-78
2023/10/06 04:15:44;;;;;;;0.40;0.40;;;13.50;99.90;;;;;;5012448;28;20030;-78
2023/10/06 04:18:10;;;;;;;0.50;0.50;;;13.40;99.90;;;;;;5012405;28;20049;-78
2023/10/06 04:20:43;;;;;;;1.65;1.05;;;13.50;99.90;;;;;;5012422;28;20044;-78
2023/10/06 04:23:11;;;;;;;1.48;0.80;;;13.40;99.90;;;;;;5009665;28;20034;-78
2023/10/06 04:25:37;;;;;;;4.15;1.75;;;13.30;99.90;;;;;;5012636;28;20026;-77
2023/10/06 04:28:11;;;;;;;0.47;0.43;;;13.20;99.90;;;;;;5012507;28;20034;-78
2023/10/06 04:30:38;;;;;;;0.50;0.50;;;13.10;99.90;;;;;;5012095;28;20030;-77
2023/10/06 04:33:05;;;;;;;0.20;0.20;;;13.20;99.90;;;;;;5012341;28;20359;-77
2023/10/06 04:35:34;;;;;;;0.10;0.10;;;13.30;99.90;;;;;;5012535;28;20061;-77
2023/10/06 04:38:01;;;;;;;1.10;0.68;;;13.20;99.90;;;;;;5013588;28;20026;-78
2023/10/06 04:40:27;;;;;;;0.32;0.32;;;13.20;99.90;;;;;;5031393;28;20036;-77
2023/10/06 04:42:54;;;;;;;3.92;1.65;;;13.30;99.90;;;;;;5016090;28;20033;-78
2023/10/06 04:45:20;;;;;;;2.95;1.10;;;13.40;99.90;;;;;;5016287;28;20410;-78
2023/10/06 04:47:46;;;;;;;0.13;0.13;;;13.30;99.90;;;;;;5014403;28;20037;-78
2023/10/06 04:50:12;;;;;;;0.80;0.57;;;13.40;99.90;;;;;;5015957;28;20459;-78
2023/10/06 04:52:39;;;;;;;1.27;1.17;;;13.20;99.90;;;;;;5031068;28;20056;-78
2023/10/06 04:55:10;;;;;;;0.30;0.30;;;13.20;99.90;;;;;;5016015;28;20097;-78
2023/10/06 04:57:36;;;;;;;1.35;0.85;;;13.00;99.90;;;;;;5014416;28;20026;-78
2023/10/06 05:00:06;;;;;;;1.45;0.32;;;13.00;99.90;;;;;;5015922;28;20371;-78
2023/10/06 05:02:34;;;;;;;3.30;1.55;;;12.90;99.90;;;;;;5029723;28;20038;-78
2023/10/06 05:05:00;;;;;;;0.20;0.20;;;13.00;99.90;;;;;;5015837;28;20391;-77
2023/10/06 05:07:27;;;;;;;1.70;1.33;;;12.90;99.90;;;;;;5015334;28;20030;-78
2023/10/06 05:09:55;;;;;;;1.45;0.82;;;13.00;99.90;;;;;;5015892;28;20505;-78
2023/10/06 05:12:24;;;;;;;1.02;0.90;;;13.00;99.90;;;;;;5015453;28;20188;-78
2023/10/06 05:14:49;;;;;;;1.52;0.45;;;12.90;99.90;;;;;;5015477;28;20359;-78
2023/10/06 05:17:16;;;;;;;0.20;0.20;;;12.90;99.90;;;;;;5015269;28;20040;-77
2023/10/06 05:19:45;;;;;;;11.63;4.95;;;12.90;99.90;;;;;;5013965;28;20026;-77
2023/10/06 05:22:11;;;;;;;1.02;0.32;;;13.10;99.90;;;;;;5015483;28;20088;-77
2023/10/06 05:24:37;;;;;;;0.43;0.43;;;13.10;99.90;;;;;;5015265;28;20050;-77
2023/10/06 05:27:05;;;;;;;0.60;0.60;;;13.10;99.90;;;;;;5015235;28;20032;-77
2023/10/06 05:29:35;;;;;;;0.10;0.10;;;13.10;99.90;;;;;;5014071;28;20029;-77
2023/10/06 05:32:03;;;;;;;0.32;0.32;;;13.10;99.90;;;;;;5014859;28;20052;-77
2023/10/06 05:34:29;;;;;;;1.08;0.90;;;12.90;99.90;;;;;;5015335;28;20378;-78
2023/10/06 05:36:56;;;;;;;5.13;1.10;;;13.00;99.90;;;;;;5015050;28;20034;-77
2023/10/06 05:39:23;;;;;;;0.80;0.57;;;12.90;99.90;;;;;;5014415;28;20037;-78
2023/10/06 05:41:49;;;;;;;0.22;0.22;;;12.90;99.90;;;;;;5014657;28;20091;-77
2023/10/06 05:44:15;;;;;;;0.05;0.05;;;13.00;99.90;;;;;;5014794;28;20033;-77
2023/10/06 05:46:41;;;;;;;2.15;1.00;;;13.00;99.90;;;;;;5014443;28;20168;-77
2023/10/06 05:49:11;;;;;;;2.53;1.20;;;13.10;99.90;;;;;;5013236;28;20534;-77
2023/10/06 05:51:38;;;;;;;1.30;0.88;;;13.00;99.90;;;;;;5014892;28;20041;-77
2023/10/06 05:54:18;;;;;;;2.88;0.95;;;12.90;99.90;;;;;;5014697;28;20026;-77
2023/10/06 05:56:47;;;;;;;2.08;0.95;;;12.80;99.90;;;;;;5014848;28;20029;-77
2023/10/06 05:59:18;;;;;;;1.45;1.35;;;13.10;99.90;;;;;;5029244;28;20030;-77
2023/10/06 06:01:46;;;;;;;1.30;0.90;;;13.20;99.90;;;;;;5009548;28;20030;-78
2023/10/06 06:04:12;;;;;;;7.93;2.45;;;13.10;99.90;;;;;;5010137;28;20529;-78
2023/10/06 06:06:38;;;;;;;0.65;0.65;;;13.10;99.90;;;;;;5008873;28;20026;-78
2023/10/06 06:09:14;;;;;;;0.00;0.00;;;13.00;99.90;;;;;;5006803;28;20026;-78
2023/10/06 06:11:40;;;;;;;0.25;0.25;;;13.10;99.90;;;;;;5009095;28;20129;-78
2023/10/06 06:14:07;;;;;;;15.43;4.38;;;13.20;99.90;;;;;;5014375;28;20050;-78
2023/10/06 06:16:34;;;;;;;0.43;0.43;;;13.20;99.90;;;;;;5013237;28;20041;-78
2023/10/06 06:18:59;;;;;;;1.45;1.35;;;13.30;99.90;;;;;;5004596;28;20072;-78
2023/10/06 06:21:26;;;;;;;0.20;0.20;;;13.20;99.90;;;;;;5009019;28;20477;-78
2023/10/06 06:23:56;;;;;;;0.52;0.40;;;13.30;99.90;;;;;;5012229;28;20021;-78
2023/10/06 06:26:23;;;;;;;12.97;1.13;;;13.30;99.90;;;;;;5010923;28;20028;-78
2023/10/06 06:28:48;;;;;;;0.10;0.10;;;13.20;99.90;;;;;;5013255;28;20466;-77
2023/10/06 06:31:18;;;;;;;1.05;0.95;;;13.30;99.90;;;;;;5012452;28;20048;-77
2023/10/06 06:33:47;;;;;;;0.10;0.10;;;13.50;99.90;;;;;;5013264;28;20041;-78
2023/10/06 06:36:13;;;;;;;0.00;0.00;;;13.60;99.90;;;;;;5006925;28;20052;-78
2023/10/06 06:38:39;;;;;;;0.10;0.10;;;13.50;99.90;;;;;;5008317;28;20048;-78
2023/10/06 06:41:05;;;;;;;0.30;0.28;;;13.60;99.90;;;;;;5013765;28;20041;-78
2023/10/06 06:43:31;;;;;;;0.45;0.45;;;13.60;99.90;;;;;;5011858;28;20018;-77
2023/10/06 06:45:58;;;;;;;4.25;2.00;;;13.60;99.90;;;;;;5013327;28;20025;-78
2023/10/06 06:48:25;;;;;;;0.80;0.75;;;13.50;99.90;;;;;;5013723;28;20049;-78
2023/10/06 06:50:52;;;;;;;0.00;0.00;;;13.60;99.90;;;;;;5012683;28;20482;-77
2023/10/06 06:53:18;;;;;;;45.60;2.85;;;13.60;99.90;;;;;;5013674;28;20030;-78
2023/10/06 06:55:45;;;;;;;4.07;1.35;;;13.70;99.90;;;;;;5011968;28;20030;-77
2023/10/06 06:58:11;;;;;;;0.30;0.30;;;13.90;99.90;;;;;;5012132;28;20022;-77
2023/10/06 07:00:40;;;;;;;1.20;1.10;;;13.80;99.90;;;;;;5011707;28;20037;-77
2023/10/06 07:03:06;;;;;;;5.20;1.55;;;14.00;99.90;;;;;;5013491;28;20022;-77
2023/10/06 07:05:35;;;;;;;1.63;1.50;;;13.80;99.90;;;;;;5013294;28;20058;-77
2023/10/06 07:08:05;;;;;;;0.93;0.57;;;14.00;99.90;;;;;;5001187;28;20355;-77
2023/10/06 07:10:31;;;;;;;2.70;1.90;;;14.10;99.90;;;;;;5009826;28;20048;-78
2023/10/06 07:12:58;;;;;;;2.90;0.63;;;14.10;99.90;;;;;;5012821;28;20108;-77
2023/10/06 07:15:27;;;;;;;4.20;1.38;;;14.10;99.90;;;;;;5013240;28;20080;-77
2023/10/06 07:17:55;;;;;;;0.65;0.65;;;14.10;99.90;;;;;;5008467;28;20056;-78
2023/10/06 07:20:24;;;;;;;6.32;3.08;;;14.20;99.90;;;;;;5008486;28;20198;-78
2023/10/06 07:22:54;;;;;;;2.55;0.75;;;14.10;99.90;;;;;;5004940;28;20021;-78
2023/10/06 07:25:24;;;;;;;5.00;1.55;;;14.20;99.90;;;;;;5012999;28;20022;-76
2023/10/06 07:27:58;;;;;;;4.97;0.93;;;14.20;99.90;;;;;;5028654;28;20076;-77
2023/10/06 07:30:29;;;;;;;10.27;1.95;;;14.30;99.90;;;;;;5012521;28;20490;-77
2023/10/06 07:32:55;;;;;;;0.85;0.85;;;14.40;99.90;;;;;;5012094;28;20030;-76
2023/10/06 07:35:41;;;;;;;0.95;0.95;;;14.50;99.90;;;;;;5011591;28;20037;-76
2023/10/06 07:38:08;;;;;;;12.27;0.88;;;14.70;99.90;;;;;;5001402;28;20438;-76
2023/10/06 07:40:36;;;;;;;10.27;2.63;;;14.90;99.90;;;;;;5011646;28;20099;-76
2023/10/06 07:43:04;;;;;;;0.13;0.13;;;15.00;99.90;;;;;;5012683;28;20045;-76
2023/10/06 07:45:32;;;;;;;3.42;1.95;;;15.10;99.90;;;;;;5012527;28;20025;-78
2023/10/06 07:47:58;;;;;;;1.17;0.60;;;15.30;99.90;;;;;;5012714;28;20072;-77
2023/10/06 07:50:29;;;;;;;1.33;1.17;;;15.60;99.90;;;;;;5012801;28;20469;-76
2023/10/06 07:52:55;;;;;;;0.98;0.63;;;15.50;99.90;;;;;;5011299;28;20084;-77
2023/10/06 07:55:23;;;;;;;9.32;1.92;;;15.30;99.90;;;;;;5004673;28;20097;-84
2023/10/06 07:57:50;;;;;;;1.65;0.88;;;15.30;99.90;;;;;;5011340;28;20026;-73
2023/10/06 08:00:27;;;;;;;1.38;0.70;;;15.60;99.90;;;;;;5012905;28;20061;-73
2023/10/06 08:02:58;;;;;;;0.85;0.85;;;15.60;99.90;;;;;;5012328;28;20034;-74
2023/10/06 08:05:25;;;;;;;1.75;1.10;;;15.60;99.90;;;;;;5012689;28;20022;-74
2023/10/06 08:07:52;;;;;;;3.45;2.10;;;15.40;99.90;;;;;;5012545;28;20490;-74
2023/10/06 08:10:18;;;;;;;8.52;2.30;;;15.40;99.90;;;;;;5012182;28;20045;-74
2023/10/06 08:12:46;;;;;;;2.13;0.90;;;15.40;99.90;;;;;;5011974;28;20029;-73
2023/10/06 08:15:17;;;;;;;0.08;0.08;;;15.40;99.90;;;;;;5016358;28;20544;-73
2023/10/06 08:17:55;;;;;;;1.02;0.55;;;15.50;99.90;;;;;;5015288;28;20029;-73
2023/10/06 08:20:23;;;;;;;1.17;0.85;;;15.80;99.90;;;;;;5016393;28;20033;-73
2023/10/06 08:22:50;;;;;;;1.17;0.55;;;15.90;99.90;;;;;;5015059;28;20395;-74
2023/10/06 08:25:17;;;;;;;2.33;1.15;;;15.90;99.90;;;;;;5016198;28;20050;-73
2023/10/06 08:27:44;;;;;;;0.80;0.80;;;15.80;99.90;;;;;;5012967;28;20055;-72
2023/10/06 08:30:16;;;;;;;0.75;0.47;;;15.70;99.90;;;;;;5014521;28;20485;-73
2023/10/06 08:32:52;;;;;;;1.83;1.08;;;15.70;99.90;;;;;;5010996;28;20038;-74
2023/10/06 08:35:18;;;;;;;0.10;0.10;;;15.70;99.90;;;;;;5016273;28;20515;-74
2023/10/06 08:37:45;;;;;;;2.95;1.30;;;15.80;99.90;;;;;;5016275;28;20030;-74
2023/10/06 08:40:16;;;;;;;0.00;0.00;;;15.90;99.90;;;;;;5015843;28;20038;-74
2023/10/06 08:42:53;;;;;;;4.38;1.42;;;15.90;99.90;;;;;;5013638;28;20368;-73
2023/10/06 08:45:25;;;;;;;0.40;0.25;;;16.10;99.90;;;;;;5008930;28;20049;-73
2023/10/06 08:47:58;;;;;;;1.15;0.85;;;16.10;99.90;;;;;;5014000;28;20061;-74
2023/10/06 08:50:29;;;;;;;17.73;3.42;;;16.20;99.90;;;;;;5014759;28;20498;-74
2023/10/06 08:52:56;;;;;;;6.68;3.28;;;15.90;99.90;;;;;;5015792;28;20048;-74
2023/10/06 08:55:23;;;;;;;8.52;1.80;;;16.00;99.90;;;;;;5015946;28;20030;-74
2023/10/06 08:57:52;;;;;;;0.55;0.55;;;15.90;99.90;;;;;;5014267;28;20113;-76
2023/10/06 09:00:22;;;;;;;5.05;1.92;;;16.00;99.90;;;;;;5016017;28;20111;-76
2023/10/06 09:02:51;;;;;;;2.20;2.00;;;16.00;99.90;;;;;;5011091;28;20040;-77
2023/10/06 09:05:18;;;;;;;2.70;1.42;;;16.30;99.90;;;;;;5008802;28;20105;-76
2023/10/06 09:08:05;;;;;;;2.47;1.40;;;16.40;99.90;;;;;;5015285;28;20100;-76
2023/10/06 09:10:35;;;;;;;2.78;1.17;;;16.60;99.90;;;;;;5015333;28;20081;-77
2023/10/06 09:13:12;;;;;;;1.92;1.67;;;16.60;99.90;;;;;;5011534;28;20058;-76
2023/10/06 09:15:40;;;;;;;2.53;1.38;;;16.60;99.90;;;;;;5006712;28;20029;-76
2023/10/06 09:18:20;;;;;;;1.27;1.05;;;16.80;99.90;;;;;;5017790;28;20033;-73
2023/10/06 09:20:47;;;;;;;5.55;2.50;;;16.90;99.90;;;;;;5026134;28;20159;-74
2023/10/06 09:23:36;;;;;;;6.63;3.42;;;16.70;99.90;;;;;;5034327;28;20061;-73
2023/10/06 09:26:07;;;;;;;0.00;0.00;;;16.60;99.90;;;;;;5003693;28;20022;-74
2023/10/06 09:28:34;;;;;;;3.05;0.77;;;16.70;99.90;;;;;;5010279;28;20397;-75
2023/10/06 09:31:05;;;;;;;0.25;0.25;;;16.60;99.90;;;;;;5011738;28;20038;-75
2023/10/06 09:33:54;;;;;;;0.88;0.82;;;16.70;99.90;;;;;;5007809;28;20034;-74
2023/10/06 09:36:23;;;;;;;15.93;1.20;;;17.00;99.90;;;;;;5009460;28;20029;-75
2023/10/06 09:38:49;;;;;;;4.47;1.38;;;17.10;99.90;;;;;;5009038;28;20026;-75
2023/10/06 09:41:28;;;;;;;4.20;2.15;;;16.90;99.90;;;;;;5010992;28;20018;-74
2023/10/06 09:44:02;;;;;;;3.72;1.60;;;16.90;99.90;;;;;;5010983;28;20030;-73
2023/10/06 09:46:31;;;;;;;2.53;1.77;;;16.80;99.90;;;;;;5022179;28;20030;-73
2023/10/06 09:48:59;;;;;;;9.68;1.20;;;16.90;99.90;;;;;;5023904;28;20017;-73
2023/10/06 09:51:31;;;;;;;4.90;1.33;;;16.80;99.90;;;;;;5006582;28;20053;-72
2023/10/06 09:53:58;;;;;;;1.30;1.15;;;16.90;99.90;;;;;;5001596;28;20437;-71
2023/10/06 09:56:24;;;;;;;4.88;1.58;;;17.20;99.90;;;;;;5006390;28;20030;-72
2023/10/06 09:58:51;;;;;;;0.60;0.25;;;16.90;99.90;;;;;;5009511;28;20405;-73
2023/10/06 10:01:20;;;;;;;1.08;1.02;;;16.90;99.90;;;;;;5011427;28;20080;-71
2023/10/06 10:03:48;;;;;;;6.25;1.35;;;17.00;99.90;;;;;;5012405;28;20034;-71
2023/10/06 10:06:16;;;;;;;4.80;1.70;;;17.00;99.90;;;;;;5013374;28;20109;-72
2023/10/06 10:08:42;;;;;;;4.95;1.90;;;17.00;99.90;;;;;;5012810;28;20057;-70
2023/10/06 10:11:17;;;;;;;3.55;2.08;;;17.10;99.90;;;;;;5013437;28;20270;-71
2023/10/06 10:14:18;;;;;;;6.13;1.13;;;17.10;99.90;;;;;;5013533;28;20026;-72
2023/10/06 10:17:03;;;;;;;0.45;0.45;;;17.30;99.90;;;;;;5026481;28;20033;-71
2023/10/06 10:19:30;;;;;;;5.30;1.70;;;17.70;99.90;;;;;;5008339;28;20030;-71
2023/10/06 10:21:58;;;;;;;0.55;0.47;;;17.90;99.90;;;;;;5011865;28;20045;-71
2023/10/06 10:24:25;;;;;;;9.13;1.20;;;17.90;99.90;;;;;;5013342;28;20076;-71
2023/10/06 10:26:53;;;;;;;0.77;0.65;;;17.70;99.90;;;;;;5012580;28;20021;-71
2023/10/06 10:29:19;;;;;;;0.85;0.60;;;17.60;99.90;;;;;;5012137;28;20114;-72
2023/10/06 10:31:57;;;;;;;3.47;0.52;;;18.00;99.90;;;;;;5010328;28;20136;-74
2023/10/06 10:34:23;;;;;;;13.95;3.03;;;18.00;99.90;;;;;;4999476;28;20386;-72
2023/10/06 10:37:12;;;;;;;10.55;2.63;;;17.70;99.90;;;;;;5007752;28;20042;-71
2023/10/06 10:39:52;;;;;;;0.68;0.40;;;17.80;99.90;;;;;;5003439;28;20058;-76
2023/10/06 10:42:22;;;;;;;6.15;1.60;;;17.90;99.90;;;;;;5010441;28;20033;-77
2023/10/06 10:44:49;;;;;;;0.32;0.32;;;18.00;99.90;;;;;;4994326;28;20030;-77
2023/10/06 10:47:20;;;;;;;0.40;0.40;;;18.30;99.90;;;;;;5005655;28;20367;-77
2023/10/06 10:49:47;;;;;;;0.07;0.07;;;18.20;99.90;;;;;;5013117;28;20096;-77
2023/10/06 10:52:14;;;;;;;0.10;0.10;;;18.30;99.90;;;;;;5008792;28;20046;-76
2023/10/06 10:54:42;;;;;;;3.40;2.20;;;18.60;99.90;;;;;;5009888;28;20026;-77
2023/10/06 10:57:21;;;;;;;1.00;0.90;;;18.50;99.90;;;;;;5004534;28;20523;-74
2023/10/06 11:02:51;;;;;;;0.22;0.22;;;18.20;99.90;;;;;;5001519;28;20030;-77
2023/10/06 11:05:21;;;;;;;0.00;0.00;;;18.60;99.90;;;;;;5003243;28;20029;-77
2023/10/06 11:07:57;;;;;;;0.05;0.05;;;18.60;99.90;;;;;;5012867;28;20033;-77
2023/10/06 11:10:23;;;;;;;1.55;1.45;;;18.60;99.90;;;;;;5003753;28;20041;-76
2023/10/06 11:13:15;;;;;;;0.17;0.17;;;18.90;99.90;;;;;;5013153;28;20254;-76
2023/10/06 11:15:42;;;;;;;0.30;0.30;;;19.10;99.90;;;;;;4994773;28;20119;-77
2023/10/06 11:18:13;;;;;;;0.00;0.00;;;19.30;99.90;;;;;;5013245;28;20021;-77
2023/10/06 11:20:39;;;;;;;10.57;2.63;;;19.40;99.90;;;;;;4995535;28;20125;-76
2023/10/06 11:23:06;;;;;;;0.05;0.05;;;19.30;99.90;;;;;;5013213;28;20029;-76
2023/10/06 11:25:36;;;;;;;9.27;1.52;;;19.50;99.90;;;;;;5013086;28;20108;-76
2023/10/06 11:28:06;;;;;;;1.85;0.85;;;19.50;99.90;;;;;;5013430;28;20068;-76
2023/10/06 11:30:41;;;;;;;2.20;0.88;;;20.00;99.90;;;;;;5012999;28;20509;-76
2023/10/06 11:33:09;;;;;;;0.40;0.30;;;20.20;99.90;;;;;;5013163;28;20038;-76
2023/10/06 11:35:37;;;;;;;0.77;0.68;;;19.50;99.90;;;;;;5011540;28;20030;-76
2023/10/06 11:38:06;;;;;;;11.95;1.00;;;19.50;99.90;;;;;;5013770;28;20029;-77
2023/10/06 11:40:34;;;;;;;7.25;2.15;;;19.60;99.90;;;;;;5013145;28;20479;-77
2023/10/06 11:43:14;;;;;;;1.08;0.98;;;19.20;99.90;;;;;;5013178;28;20041;-77
2023/10/06 11:45:41;;;;;;;9.50;1.88;;;19.20;99.90;;;;;;5012925;28;20033;-77
2023/10/06 11:48:31;;;;;;;5.85;1.58;;;19.20;99.90;;;;;;5011994;28;20427;-77
2023/10/06 11:51:06;;;;;;;2.10;1.27;;;19.80;99.90;;;;;;5012866;28;20029;-77
2023/10/06 11:53:33;;;;;;;0.45;0.45;;;19.80;99.90;;;;;;5012875;28;20112;-77
2023/10/06 11:56:13;;;;;;;3.03;1.38;;;20.60;99.90;;;;;;5012785;28;20029;-77
2023/10/06 11:58:40;;;;;;;0.40;0.30;;;20.80;99.90;;;;;;5012958;28;20096;-77
2023/10/06 12:01:32;;;;;;;0.80;0.20;;;21.70;99.90;;;;;;5012629;28;20057;-77
2023/10/06 12:04:04;;;;;;;2.42;1.33;;;22.10;99.90;;;;;;5006254;28;20069;-76
2023/10/06 12:06:40;;;;;;;;;;;21.40;99.90;;;;;;5012947;28;20064;-77
2023/10/06 12:09:08;;;;;;;5.80;1.90;;;21.10;99.90;;;;;;5012764;28;19920;-77
2023/10/06 12:11:34;;;;;;;0.30;0.30;;;21.30;99.90;;;;;;5027702;28;20034;-76
2023/10/06 12:13:59;;;;;;;7.97;1.50;;;22.00;99.90;;;;;;5012558;28;20088;-77
2023/10/06 12:16:25;;;;;;;0.25;0.20;;;21.70;99.90;;;;;;5012440;28;20030;-76
2023/10/06 12:18:51;;;;;;;2.97;0.85;;;21.20;99.90;;;;;;5012589;28;20022;-76
2023/10/06 12:21:17;;;;;;;0.50;0.50;;;21.70;99.90;;;;;;5012313;28;20458;-77
2023/10/06 12:23:44;;;;;;;1.13;0.55;;;21.90;99.90;;;;;;5012729;28;20025;-77
2023/10/06 12:26:10;;;;;;;2.42;1.02;;;21.80;99.90;;;;;;5012505;28;20026;-77
2023/10/06 12:28:38;;;;;;;1.75;0.55;;;21.80;99.90;;;;;;5012796;28;20034;-76
2023/10/06 12:31:05;;;;;;;0.43;0.43;;;22.20;99.90;;;;;;5012396;28;20077;-77
2023/10/06 12:33:32;;;;;;;6.00;1.55;;;22.20;99.90;;;;;;5012230;28;20108;-76
2023/10/06 12:35:59;;;;;;;3.28;1.30;;;22.20;99.90;;;;;;5012938;28;20430;-77
2023/10/06 12:38:28;;;;;;;8.30;1.17;;;22.30;99.90;;;;;;5012332;28;20018;-77
2023/10/06 12:40:53;;;;;;;0.55;0.20;;;22.10;99.90;;;;;;5012418;28;20034;-77
2023/10/06 12:43:19;;;;;;;0.10;0.10;;;22.20;99.90;;;;;;5027633;28;20072;-77
2023/10/06 12:45:46;;;;;;;2.45;1.17;;;22.00;99.90;;;;;;5012434;28;20079;-76
2023/10/06 12:48:11;;;;;;;1.90;0.68;;;22.10;99.90;;;;;;5012126;28;20030;-77
2023/10/06 12:50:40;;;;;;;6.78;1.30;;;21.80;99.90;;;;;;5012215;28;20030;-76
2023/10/06 12:53:14;;;;;;;3.90;0.65;;;22.40;99.90;;;;;;5012525;28;20352;-77
2023/10/06 12:55:41;;;;;;;0.38;0.38;;;22.80;99.90;;;;;;5012351;28;20030;-77
2023/10/06 12:58:15;;;;;;;1.17;0.77;;;23.90;99.90;;;;;;5011046;28;20104;-76
2023/10/06 13:00:41;;;;;;;5.40;1.88;;;23.10;99.90;;;;;;5015962;28;20033;-77
2023/10/06 13:03:15;;;;;;;8.65;1.98;;;23.20;99.90;;;;;;5015810;28;20113;-76
2023/10/06 13:05:50;;;;;;;1.27;0.47;;;23.30;99.90;;;;;;5031190;28;20071;-77
2023/10/06 13:08:17;;;;;;;3.53;2.30;;;22.50;99.90;;;;;;5002176;28;20085;-77